createdAt,value
2023-10-10T00:02:22.583Z,102213.63
2023-10-10T00:04:55.886Z,102203.28
2023-10-10T00:07:24.719Z,102200.69
2023-10-10T00:09:51.999Z,102206.69
2023-10-10T00:12:21.057Z,102209.28
2023-10-10T00:14:52.022Z,102210.19
2023-10-10T00:17:22.057Z,102202.22
2023-10-10T00:19:59.741Z,102202.00
2023-10-10T00:22:35.862Z,102215.09
2023-10-10T00:25:06.169Z,102197.72
2023-10-10T00:27:34.317Z,102210.94
2023-10-10T00:30:01.622Z,102194.38
2023-10-10T00:32:36.685Z,102207.44
2023-10-10T00:35:07.207Z,102186.69
2023-10-10T00:37:36.214Z,102183.81
2023-10-10T00:40:09.486Z,102201.25
2023-10-10T00:42:43.085Z,102197.03
2023-10-10T00:45:11.504Z,102202.97
2023-10-10T00:47:44.499Z,102201.22
2023-10-10T00:50:20.955Z,102197.56
2023-10-10T00:52:54.227Z,102207.88
2023-10-10T00:55:26.681Z,102205.22
2023-10-10T00:57:57.681Z,102187.88
2023-10-10T01:00:26.495Z,102192.25
2023-10-10T01:02:54.161Z,102181.78
2023-10-10T01:05:25.630Z,102193.94
2023-10-10T01:07:55.244Z,102178.28
2023-10-10T01:10:22.518Z,102199.22
2023-10-10T01:12:50.941Z,102180.22
2023-10-10T01:15:36.051Z,102189.09
2023-10-10T01:18:04.645Z,102179.47
2023-10-10T01:20:46.964Z,102187.22
2023-10-10T01:23:20.028Z,102185.44
2023-10-10T01:25:48.601Z,102183.72
2023-10-10T01:28:22.365Z,102180.16
2023-10-10T01:30:54.538Z,102180.97
2023-10-10T01:33:26.399Z,102176.59
2023-10-10T01:36:04.289Z,102178.97
2023-10-10T01:39:00.503Z,102174.47
2023-10-10T01:41:40.113Z,102164.69
2023-10-10T01:44:14.256Z,102163.84
2023-10-10T01:46:42.421Z,102177.69
2023-10-10T01:49:15.106Z,102177.81
2023-10-10T01:51:44.440Z,102171.88
2023-10-10T01:54:22.183Z,102164.94
2023-10-10T01:56:50.029Z,102177.00
2023-10-10T01:59:27.143Z,102180.47
2023-10-10T02:01:55.906Z,102173.59
2023-10-10T02:04:23.513Z,102164.06
2023-10-10T02:06:58.017Z,102177.28
2023-10-10T02:09:25.550Z,102170.28
2023-10-10T02:11:56.042Z,102163.28
2023-10-10T02:14:26.477Z,102176.31
2023-10-10T02:16:55.716Z,102170.31
2023-10-10T02:19:36.300Z,102172.81
2023-10-10T02:22:33.838Z,102176.25
2023-10-10T02:25:22.154Z,102151.78
2023-10-10T02:28:08.018Z,102169.25
2023-10-10T02:30:36.273Z,102172.53
2023-10-10T02:33:31.665Z,102172.41
2023-10-10T02:35:59.365Z,102159.38
2023-10-10T02:38:33.432Z,102167.28
2023-10-10T02:41:17.766Z,102169.94
2023-10-10T02:43:47.661Z,102168.25
2023-10-10T02:46:19.330Z,102168.44
2023-10-10T02:48:46.647Z,102156.31
2023-10-10T02:51:17.296Z,102160.69
2023-10-10T02:53:48.005Z,102166.72
2023-10-10T02:56:20.168Z,102165.91
2023-10-10T02:58:51.082Z,102168.66
2023-10-10T03:01:41.012Z,102170.44
2023-10-10T03:04:09.920Z,102169.53
2023-10-10T03:06:39.345Z,102173.91
2023-10-10T03:09:17.288Z,102167.81
2023-10-10T03:12:05.133Z,102152.03
2023-10-10T03:14:36.859Z,102146.72
2023-10-10T03:17:07.008Z,102154.59
2023-10-10T03:19:39.903Z,102172.69
2023-10-10T03:22:25.704Z,102170.84
2023-10-10T03:25:08.789Z,102149.03
2023-10-10T03:27:56.318Z,102170.00
2023-10-10T03:30:45.775Z,102170.06
2023-10-10T03:33:18.160Z,102158.78
2023-10-10T03:36:01.230Z,102173.72
2023-10-10T03:38:39.439Z,102177.13
2023-10-10T03:41:25.113Z,102172.88
2023-10-10T03:44:16.031Z,102167.59
2023-10-10T03:47:01.704Z,102169.34
2023-10-10T03:49:50.535Z,102168.56
2023-10-10T03:52:36.825Z,102164.19
2023-10-10T03:55:23.102Z,102172.06
2023-10-10T03:58:08.845Z,102176.41
2023-10-10T04:00:54.580Z,102172.97
2023-10-10T04:03:40.867Z,102178.00
2023-10-10T04:06:26.719Z,102175.34
2023-10-10T04:09:12.772Z,102181.50
2023-10-10T04:11:58.657Z,102178.09
2023-10-10T04:14:44.411Z,102160.72
2023-10-10T04:17:30.587Z,102166.66
2023-10-10T04:20:16.798Z,102177.22
2023-10-10T04:23:02.707Z,102166.81
2023-10-10T04:25:48.478Z,102172.97
2023-10-10T04:28:34.134Z,102167.66
2023-10-10T04:31:25.155Z,102162.47
2023-10-10T04:34:16.916Z,102175.47
2023-10-10T04:37:05.502Z,102165.16
2023-10-10T04:39:51.318Z,102178.16
2023-10-10T04:42:37.080Z,102168.69
2023-10-10T04:45:23.499Z,102160.81
2023-10-10T04:48:12.471Z,102164.31
2023-10-10T22:34:16.671Z,102199.78
2023-10-10T22:36:54.947Z,102208.38
2023-10-10T22:39:29.692Z,102195.19
2023-10-10T22:41:56.847Z,102191.72
2023-10-10T22:44:24.072Z,102205.56
2023-10-10T22:46:51.316Z,102197.69
2023-10-10T22:49:19.469Z,102208.97
2023-10-10T22:51:46.809Z,102192.53
2023-10-10T22:54:14.294Z,102202.16
2023-10-10T22:56:42.598Z,102195.34
2023-10-10T22:59:09.667Z,102191.84
2023-10-10T23:01:36.775Z,102196.19
2023-10-10T23:04:04.067Z,102187.41
2023-10-10T23:06:31.273Z,102195.13
2023-10-10T23:09:00.056Z,102196.00
2023-10-10T23:11:27.761Z,102205.56
2023-10-10T23:13:56.026Z,102187.25
2023-10-10T23:16:23.726Z,102204.59
2023-10-10T23:18:51.377Z,102198.47
2023-10-10T23:21:20.586Z,102200.28
2023-10-10T23:23:48.364Z,102194.22
2023-10-10T23:26:20.466Z,102205.47
2023-10-10T23:28:49.407Z,102186.34
2023-10-10T23:31:17.215Z,102188.88
2023-10-10T23:33:44.491Z,102196.78
2023-10-10T23:36:12.698Z,102186.25
2023-10-10T23:38:41.718Z,102185.44
2023-10-10T23:41:08.949Z,102190.75
2023-10-10T23:43:38.429Z,102183.78
2023-10-10T23:46:07.606Z,102185.59
2023-10-10T23:48:37.007Z,102181.22
2023-10-10T23:51:08.228Z,102193.34
2023-10-10T23:53:39.991Z,102185.41
2023-10-10T23:56:07.201Z,102187.16
2023-10-10T23:58:36.378Z,102192.38
